sensor_id;sensor_type;location;lat;lon;timestamp;P1;durP1;ratioP1;P2;durP2;ratioP2
44214;SDS011;29884;47.450;19.124;2023-04-25T00:02:21;0.50;;;0.40;;
44214;SDS011;29884;47.450;19.124;2023-04-25T00:04:47;0.65;;;0.40;;
44214;SDS011;29884;47.450;19.124;2023-04-25T00:07:14;0.70;;;0.40;;
44214;SDS011;29884;47.450;19.124;2023-04-25T00:09:41;0.50;;;0.40;;
44214;SDS011;29884;47.450;19.124;2023-04-25T00:12:07;1.75;;;0.40;;
44214;SDS011;29884;47.450;19.124;2023-04-25T00:14:32;0.82;;;0.40;;
44214;SDS011;29884;47.450;19.124;2023-04-25T00:16:59;0.40;;;0.30;;
44214;SDS011;29884;47.450;19.124;2023-04-25T00:19:25;2.00;;;0.30;;
44214;SDS011;29884;47.450;19.124;2023-04-25T00:21:53;0.52;;;0.30;;
44214;SDS011;29884;47.450;19.124;2023-04-25T00:24:20;0.43;;;0.30;;
44214;SDS011;29884;47.450;19.124;2023-04-25T00:26:46;0.85;;;0.30;;
44214;SDS011;29884;47.450;19.124;2023-04-25T00:29:12;0.32;;;0.32;;
44214;SDS011;29884;47.450;19.124;2023-04-25T00:31:38;0.65;;;0.40;;
44214;SDS011;29884;47.450;19.124;2023-04-25T00:34:03;0.70;;;0.40;;
44214;SDS011;29884;47.450;19.124;2023-04-25T00:36:29;2.25;;;0.35;;
44214;SDS011;29884;47.450;19.124;2023-04-25T00:38:55;0.65;;;0.40;;
44214;SDS011;29884;47.450;19.124;2023-04-25T00:41:23;0.90;;;0.40;;
44214;SDS011;29884;47.450;19.124;2023-04-25T00:46:27;0.90;;;0.43;;
44214;SDS011;29884;47.450;19.124;2023-04-25T00:48:54;0.80;;;0.50;;
44214;SDS011;29884;47.450;19.124;2023-04-25T00:51:20;0.68;;;0.40;;
44214;SDS011;29884;47.450;19.124;2023-04-25T00:53:47;0.73;;;0.43;;
44214;SDS011;29884;47.450;19.124;2023-04-25T00:56:14;1.20;;;0.60;;
44214;SDS011;29884;47.450;19.124;2023-04-25T00:58:41;1.40;;;0.60;;
44214;SDS011;29884;47.450;19.124;2023-04-25T01:01:08;0.60;;;0.50;;
44214;SDS011;29884;47.450;19.124;2023-04-25T01:03:35;0.60;;;0.50;;
44214;SDS011;29884;47.450;19.124;2023-04-25T01:06:07;0.90;;;0.50;;
44214;SDS011;29884;47.450;19.124;2023-04-25T01:08:34;0.93;;;0.60;;
44214;SDS011;29884;47.450;19.124;2023-04-25T01:11:01;0.90;;;0.65;;
44214;SDS011;29884;47.450;19.124;2023-04-25T01:13:26;1.02;;;0.50;;
44214;SDS011;29884;47.450;19.124;2023-04-25T01:15:52;0.93;;;0.52;;
44214;SDS011;29884;47.450;19.124;2023-04-25T01:18:18;0.93;;;0.63;;
44214;SDS011;29884;47.450;19.124;2023-04-25T01:20:45;1.00;;;0.50;;
44214;SDS011;29884;47.450;19.124;2023-04-25T01:23:13;0.80;;;0.60;;
44214;SDS011;29884;47.450;19.124;2023-04-25T01:25:39;0.82;;;0.50;;
44214;SDS011;29884;47.450;19.124;2023-04-25T01:28:05;0.90;;;0.50;;
44214;SDS011;29884;47.450;19.124;2023-04-25T01:30:31;1.10;;;0.70;;
44214;SDS011;29884;47.450;19.124;2023-04-25T01:32:57;1.25;;;0.60;;
44214;SDS011;29884;47.450;19.124;2023-04-25T01:35:26;1.58;;;0.60;;
44214;SDS011;29884;47.450;19.124;2023-04-25T01:37:53;0.63;;;0.50;;
44214;SDS011;29884;47.450;19.124;2023-04-25T01:40:21;1.00;;;0.68;;
44214;SDS011;29884;47.450;19.124;2023-04-25T01:42:49;1.10;;;0.70;;
44214;SDS011;29884;47.450;19.124;2023-04-25T01:45:16;1.17;;;0.70;;
44214;SDS011;29884;47.450;19.124;2023-04-25T01:47:43;0.95;;;0.70;;
44214;SDS011;29884;47.450;19.124;2023-04-25T01:50:13;0.95;;;0.70;;
44214;SDS011;29884;47.450;19.124;2023-04-25T01:52:40;2.28;;;0.75;;
44214;SDS011;29884;47.450;19.124;2023-04-25T01:55:05;2.25;;;0.65;;
44214;SDS011;29884;47.450;19.124;2023-04-25T01:57:31;0.90;;;0.60;;
44214;SDS011;29884;47.450;19.124;2023-04-25T01:59:58;0.85;;;0.70;;
44214;SDS011;29884;47.450;19.124;2023-04-25T02:02:26;1.13;;;0.70;;
44214;SDS011;29884;47.450;19.124;2023-04-25T02:04:52;1.20;;;0.80;;
44214;SDS011;29884;47.450;19.124;2023-04-25T02:07:19;0.85;;;0.65;;
44214;SDS011;29884;47.450;19.124;2023-04-25T02:09:45;1.25;;;0.75;;
44214;SDS011;29884;47.450;19.124;2023-04-25T02:12:11;1.50;;;0.70;;
44214;SDS011;29884;47.450;19.124;2023-04-25T02:14:37;0.85;;;0.63;;
44214;SDS011;29884;47.450;19.124;2023-04-25T02:17:02;1.00;;;0.80;;
44214;SDS011;29884;47.450;19.124;2023-04-25T02:19:28;1.33;;;0.60;;
44214;SDS011;29884;47.450;19.124;2023-04-25T02:21:54;1.00;;;0.65;;
44214;SDS011;29884;47.450;19.124;2023-04-25T02:24:20;1.10;;;0.77;;
44214;SDS011;29884;47.450;19.124;2023-04-25T02:26:46;1.00;;;0.70;;
44214;SDS011;29884;47.450;19.124;2023-04-25T02:29:12;0.90;;;0.70;;
44214;SDS011;29884;47.450;19.124;2023-04-25T02:31:38;1.27;;;0.70;;
44214;SDS011;29884;47.450;19.124;2023-04-25T02:34:03;1.25;;;0.70;;
44214;SDS011;29884;47.450;19.124;2023-04-25T02:36:29;1.10;;;0.70;;
44214;SDS011;29884;47.450;19.124;2023-04-25T02:51:55;0.80;;;0.60;;
44214;SDS011;29884;47.450;19.124;2023-04-25T02:54:21;2.60;;;0.70;;
44214;SDS011;29884;47.450;19.124;2023-04-25T02:56:47;0.80;;;0.50;;
44214;SDS011;29884;47.450;19.124;2023-04-25T03:06:59;1.00;;;0.60;;
44214;SDS011;29884;47.450;19.124;2023-04-25T03:14:37;0.90;;;0.50;;
44214;SDS011;29884;47.450;19.124;2023-04-25T03:17:03;2.38;;;0.50;;
44214;SDS011;29884;47.450;19.124;2023-04-25T03:19:29;0.85;;;0.47;;
44214;SDS011;29884;47.450;19.124;2023-04-25T03:21:55;3.08;;;0.70;;
44214;SDS011;29884;47.450;19.124;2023-04-25T03:24:21;1.50;;;0.70;;
44214;SDS011;29884;47.450;19.124;2023-04-25T03:26:47;1.42;;;0.70;;
44214;SDS011;29884;47.450;19.124;2023-04-25T03:29:12;1.00;;;0.70;;
44214;SDS011;29884;47.450;19.124;2023-04-25T03:31:38;1.10;;;0.75;;
44214;SDS011;29884;47.450;19.124;2023-04-25T03:34:04;0.93;;;0.63;;
44214;SDS011;29884;47.450;19.124;2023-04-25T03:36:30;2.35;;;0.60;;
44214;SDS011;29884;47.450;19.124;2023-04-25T03:38:55;0.80;;;0.60;;
44214;SDS011;29884;47.450;19.124;2023-04-25T03:41:21;0.85;;;0.70;;
44214;SDS011;29884;47.450;19.124;2023-04-25T03:43:47;1.40;;;0.60;;
44214;SDS011;29884;47.450;19.124;2023-04-25T03:46:13;0.85;;;0.65;;
44214;SDS011;29884;47.450;19.124;2023-04-25T03:48:38;0.80;;;0.60;;
44214;SDS011;29884;47.450;19.124;2023-04-25T03:51:05;0.93;;;0.77;;
44214;SDS011;29884;47.450;19.124;2023-04-25T03:53:31;0.75;;;0.52;;
44214;SDS011;29884;47.450;19.124;2023-04-25T03:55:58;0.90;;;0.60;;
44214;SDS011;29884;47.450;19.124;2023-04-25T04:03:37;1.02;;;0.60;;
44214;SDS011;29884;47.450;19.124;2023-04-25T04:06:04;1.15;;;0.70;;
44214;SDS011;29884;47.450;19.124;2023-04-25T04:10:58;1.30;;;0.60;;
44214;SDS011;29884;47.450;19.124;2023-04-25T04:13:25;0.73;;;0.60;;
44214;SDS011;29884;47.450;19.124;2023-04-25T04:15:52;1.05;;;0.50;;
44214;SDS011;29884;47.450;19.124;2023-04-25T04:18:18;0.95;;;0.60;;
44214;SDS011;29884;47.450;19.124;2023-04-25T04:20:44;0.90;;;0.70;;
44214;SDS011;29884;47.450;19.124;2023-04-25T04:23:10;0.80;;;0.60;;
44214;SDS011;29884;47.450;19.124;2023-04-25T04:25:36;1.10;;;0.63;;
44214;SDS011;29884;47.450;19.124;2023-04-25T04:28:02;1.45;;;0.70;;
44214;SDS011;29884;47.450;19.124;2023-04-25T04:30:28;1.33;;;0.70;;
44214;SDS011;29884;47.450;19.124;2023-04-25T04:32:54;1.90;;;0.70;;
44214;SDS011;29884;47.450;19.124;2023-04-25T04:35:20;1.60;;;0.70;;
44214;SDS011;29884;47.450;19.124;2023-04-25T04:37:47;1.20;;;0.80;;
44214;SDS011;29884;47.450;19.124;2023-04-25T04:40:13;2.47;;;0.80;;
44214;SDS011;29884;47.450;19.124;2023-04-25T04:42:41;1.25;;;0.88;;
44214;SDS011;29884;47.450;19.124;2023-04-25T04:45:07;2.55;;;0.80;;
44214;SDS011;29884;47.450;19.124;2023-04-25T04:47:33;1.30;;;0.70;;
44214;SDS011;29884;47.450;19.124;2023-04-25T04:50:02;1.17;;;0.70;;
44214;SDS011;29884;47.450;19.124;2023-04-25T04:52:29;1.27;;;0.63;;
44214;SDS011;29884;47.450;19.124;2023-04-25T04:54:55;1.20;;;0.80;;
44214;SDS011;29884;47.450;19.124;2023-04-25T05:22:24;0.88;;;0.60;;
44214;SDS011;29884;47.450;19.124;2023-04-25T05:24:51;1.85;;;0.60;;
44214;SDS011;29884;47.450;19.124;2023-04-25T05:27:17;1.17;;;0.73;;
44214;SDS011;29884;47.450;19.124;2023-04-25T05:29:43;0.88;;;0.70;;
44214;SDS011;29884;47.450;19.124;2023-04-25T05:45:06;1.42;;;0.60;;
44214;SDS011;29884;47.450;19.124;2023-04-25T05:47:33;0.88;;;0.60;;
44214;SDS011;29884;47.450;19.124;2023-04-25T05:49:59;1.38;;;0.60;;
44214;SDS011;29884;47.450;19.124;2023-04-25T05:52:25;1.00;;;0.55;;
44214;SDS011;29884;47.450;19.124;2023-04-25T05:54:51;1.00;;;0.63;;
44214;SDS011;29884;47.450;19.124;2023-04-25T05:57:24;1.23;;;0.70;;
44214;SDS011;29884;47.450;19.124;2023-04-25T05:59:51;0.77;;;0.60;;
44214;SDS011;29884;47.450;19.124;2023-04-25T06:02:21;1.00;;;0.60;;
44214;SDS011;29884;47.450;19.124;2023-04-25T06:04:49;1.40;;;0.73;;
44214;SDS011;29884;47.450;19.124;2023-04-25T06:07:16;0.95;;;0.65;;
44214;SDS011;29884;47.450;19.124;2023-04-25T06:09:43;2.03;;;0.80;;
44214;SDS011;29884;47.450;19.124;2023-04-25T06:12:09;3.33;;;0.80;;
44214;SDS011;29884;47.450;19.124;2023-04-25T06:14:36;0.90;;;0.70;;
44214;SDS011;29884;47.450;19.124;2023-04-25T06:17:03;1.08;;;0.77;;
44214;SDS011;29884;47.450;19.124;2023-04-25T06:19:36;1.30;;;0.80;;
44214;SDS011;29884;47.450;19.124;2023-04-25T06:22:04;2.75;;;0.80;;
44214;SDS011;29884;47.450;19.124;2023-04-25T06:45:25;1.92;;;1.20;;
44214;SDS011;29884;47.450;19.124;2023-04-25T06:50:25;2.05;;;1.25;;
44214;SDS011;29884;47.450;19.124;2023-04-25T06:52:51;1.65;;;1.20;;
44214;SDS011;29884;47.450;19.124;2023-04-25T06:55:17;2.08;;;1.20;;
44214;SDS011;29884;47.450;19.124;2023-04-25T06:57:42;2.17;;;1.50;;
44214;SDS011;29884;47.450;19.124;2023-04-25T07:00:08;1.95;;;1.23;;
44214;SDS011;29884;47.450;19.124;2023-04-25T07:02:35;1.80;;;1.30;;
44214;SDS011;29884;47.450;19.124;2023-04-25T07:05:01;1.60;;;1.20;;
44214;SDS011;29884;47.450;19.124;2023-04-25T07:07:29;2.00;;;1.50;;
44214;SDS011;29884;47.450;19.124;2023-04-25T07:09:55;2.47;;;1.40;;
44214;SDS011;29884;47.450;19.124;2023-04-25T07:12:21;2.65;;;1.42;;
44214;SDS011;29884;47.450;19.124;2023-04-25T07:14:47;2.20;;;1.27;;
44214;SDS011;29884;47.450;19.124;2023-04-25T07:17:13;1.88;;;1.40;;
44214;SDS011;29884;47.450;19.124;2023-04-25T07:19:38;2.55;;;1.17;;
44214;SDS011;29884;47.450;19.124;2023-04-25T07:22:05;2.22;;;1.50;;
44214;SDS011;29884;47.450;19.124;2023-04-25T07:24:31;2.08;;;1.30;;
44214;SDS011;29884;47.450;19.124;2023-04-25T07:26:57;2.45;;;1.55;;
44214;SDS011;29884;47.450;19.124;2023-04-25T07:29:23;1.80;;;1.33;;
44214;SDS011;29884;47.450;19.124;2023-04-25T07:31:49;1.90;;;1.20;;
44214;SDS011;29884;47.450;19.124;2023-04-25T07:34:15;3.30;;;1.40;;
44214;SDS011;29884;47.450;19.124;2023-04-25T07:36:41;3.35;;;1.30;;
44214;SDS011;29884;47.450;19.124;2023-04-25T07:39:07;2.95;;;1.40;;
44214;SDS011;29884;47.450;19.124;2023-04-25T07:41:36;1.40;;;1.10;;
44214;SDS011;29884;47.450;19.124;2023-04-25T07:44:01;3.70;;;1.30;;
44214;SDS011;29884;47.450;19.124;2023-04-25T07:51:38;1.58;;;1.10;;
44214;SDS011;29884;47.450;19.124;2023-04-25T07:54:15;2.45;;;1.08;;
44214;SDS011;29884;47.450;19.124;2023-04-25T07:56:43;2.00;;;1.30;;
44214;SDS011;29884;47.450;19.124;2023-04-25T07:59:09;1.75;;;1.30;;
44214;SDS011;29884;47.450;19.124;2023-04-25T08:01:35;1.50;;;0.90;;
44214;SDS011;29884;47.450;19.124;2023-04-25T08:04:00;1.02;;;0.88;;
44214;SDS011;29884;47.450;19.124;2023-04-25T08:06:26;1.38;;;0.93;;
44214;SDS011;29884;47.450;19.124;2023-04-25T08:08:52;1.77;;;1.00;;
44214;SDS011;29884;47.450;19.124;2023-04-25T08:11:17;1.80;;;1.00;;
44214;SDS011;29884;47.450;19.124;2023-04-25T08:13:43;1.10;;;0.88;;
44214;SDS011;29884;47.450;19.124;2023-04-25T08:16:09;1.38;;;0.93;;
44214;SDS011;29884;47.450;19.124;2023-04-25T08:18:35;1.30;;;0.93;;
44214;SDS011;29884;47.450;19.124;2023-04-25T08:21:00;3.33;;;1.00;;
44214;SDS011;29884;47.450;19.124;2023-04-25T08:23:26;1.90;;;1.20;;
44214;SDS011;29884;47.450;19.124;2023-04-25T08:25:52;1.45;;;0.93;;
44214;SDS011;29884;47.450;19.124;2023-04-25T08:28:18;1.92;;;0.90;;
44214;SDS011;29884;47.450;19.124;2023-04-25T08:30:44;1.17;;;0.70;;
44214;SDS011;29884;47.450;19.124;2023-04-25T08:33:10;1.00;;;0.73;;
44214;SDS011;29884;47.450;19.124;2023-04-25T08:35:36;1.05;;;0.75;;
44214;SDS011;29884;47.450;19.124;2023-04-25T08:38:02;1.95;;;0.75;;
44214;SDS011;29884;47.450;19.124;2023-04-25T08:40:27;2.35;;;0.70;;
44214;SDS011;29884;47.450;19.124;2023-04-25T08:42:56;1.10;;;0.80;;
44214;SDS011;29884;47.450;19.124;2023-04-25T08:45:23;0.93;;;0.70;;
44214;SDS011;29884;47.450;19.124;2023-04-25T08:47:51;2.13;;;0.80;;
44214;SDS011;29884;47.450;19.124;2023-04-25T08:50:18;1.10;;;0.60;;
44214;SDS011;29884;47.450;19.124;2023-04-25T08:52:47;2.05;;;0.70;;
44214;SDS011;29884;47.450;19.124;2023-04-25T08:55:15;3.13;;;0.60;;
44214;SDS011;29884;47.450;19.124;2023-04-25T08:57:42;1.08;;;0.70;;
44214;SDS011;29884;47.450;19.124;2023-04-25T09:00:09;3.95;;;0.70;;
44214;SDS011;29884;47.450;19.124;2023-04-25T09:02:37;0.80;;;0.70;;
44214;SDS011;29884;47.450;19.124;2023-04-25T09:05:03;2.03;;;0.80;;
44214;SDS011;29884;47.450;19.124;2023-04-25T09:07:31;2.00;;;0.90;;
44214;SDS011;29884;47.450;19.124;2023-04-25T09:09:58;1.10;;;0.80;;
44214;SDS011;29884;47.450;19.124;2023-04-25T09:12:26;1.70;;;0.90;;
44214;SDS011;29884;47.450;19.124;2023-04-25T09:17:38;1.48;;;0.77;;
44214;SDS011;29884;47.450;19.124;2023-04-25T09:20:07;1.83;;;0.77;;
44214;SDS011;29884;47.450;19.124;2023-04-25T09:22:36;2.35;;;0.70;;
44214;SDS011;29884;47.450;19.124;2023-04-25T09:25:03;0.98;;;0.75;;
44214;SDS011;29884;47.450;19.124;2023-04-25T09:27:50;0.93;;;0.60;;
44214;SDS011;29884;47.450;19.124;2023-04-25T09:32:56;0.70;;;0.60;;
44214;SDS011;29884;47.450;19.124;2023-04-25T09:35:24;0.77;;;0.60;;
44214;SDS011;29884;47.450;19.124;2023-04-25T09:37:53;2.47;;;0.75;;
44214;SDS011;29884;47.450;19.124;2023-04-25T09:42:54;1.10;;;0.60;;
44214;SDS011;29884;47.450;19.124;2023-04-25T09:45:20;1.48;;;0.80;;
44214;SDS011;29884;47.450;19.124;2023-04-25T09:50:22;0.90;;;0.60;;
44214;SDS011;29884;47.450;19.124;2023-04-25T09:55:25;1.77;;;0.73;;
44214;SDS011;29884;47.450;19.124;2023-04-25T09:57:51;1.35;;;0.60;;
44214;SDS011;29884;47.450;19.124;2023-04-25T10:00:19;3.95;;;1.58;;
44214;SDS011;29884;47.450;19.124;2023-04-25T10:02:46;2.25;;;1.02;;
44214;SDS011;29884;47.450;19.124;2023-04-25T10:05:13;0.80;;;0.50;;
44214;SDS011;29884;47.450;19.124;2023-04-25T10:07:40;0.70;;;0.60;;
44214;SDS011;29884;47.450;19.124;2023-04-25T10:10:06;0.80;;;0.40;;
44214;SDS011;29884;47.450;19.124;2023-04-25T10:12:33;0.40;;;0.30;;
44214;SDS011;29884;47.450;19.124;2023-04-25T10:14:59;1.23;;;0.47;;
44214;SDS011;29884;47.450;19.124;2023-04-25T10:17:29;0.60;;;0.40;;
44214;SDS011;29884;47.450;19.124;2023-04-25T10:19:55;0.30;;;0.20;;
44214;SDS011;29884;47.450;19.124;2023-04-25T10:22:37;0.30;;;0.20;;
44214;SDS011;29884;47.450;19.124;2023-04-25T10:25:06;0.20;;;0.20;;
44214;SDS011;29884;47.450;19.124;2023-04-25T10:27:33;0.60;;;0.20;;
44214;SDS011;29884;47.450;19.124;2023-04-25T10:30:09;0.82;;;0.30;;
44214;SDS011;29884;47.450;19.124;2023-04-25T10:32:39;0.80;;;0.30;;
44214;SDS011;29884;47.450;19.124;2023-04-25T10:35:17;0.15;;;0.10;;
44214;SDS011;29884;47.450;19.124;2023-04-25T10:40:26;0.10;;;0.10;;
44214;SDS011;29884;47.450;19.124;2023-04-25T10:42:52;0.80;;;0.38;;
44214;SDS011;29884;47.450;19.124;2023-04-25T10:45:19;0.38;;;0.20;;
44214;SDS011;29884;47.450;19.124;2023-04-25T10:47:45;0.28;;;0.20;;
44214;SDS011;29884;47.450;19.124;2023-04-25T10:50:11;0.93;;;0.30;;
44214;SDS011;29884;47.450;19.124;2023-04-25T10:52:41;0.82;;;0.22;;
44214;SDS011;29884;47.450;19.124;2023-04-25T10:55:07;0.50;;;0.20;;
44214;SDS011;29884;47.450;19.124;2023-04-25T10:57:37;2.75;;;0.40;;
44214;SDS011;29884;47.450;19.124;2023-04-25T11:02:40;0.20;;;0.10;;
44214;SDS011;29884;47.450;19.124;2023-04-25T11:05:08;0.10;;;0.10;;
44214;SDS011;29884;47.450;19.124;2023-04-25T11:07:44;0.25;;;0.10;;
44214;SDS011;29884;47.450;19.124;2023-04-25T11:10:19;0.22;;;0.10;;
44214;SDS011;29884;47.450;19.124;2023-04-25T11:12:49;0.10;;;0.05;;
44214;SDS011;29884;47.450;19.124;2023-04-25T11:15:16;0.03;;;0.03;;
44214;SDS011;29884;47.450;19.124;2023-04-25T11:17:42;0.20;;;0.10;;
44214;SDS011;29884;47.450;19.124;2023-04-25T11:20:09;0.30;;;0.20;;
44214;SDS011;29884;47.450;19.124;2023-04-25T11:22:37;0.57;;;0.10;;
44214;SDS011;29884;47.450;19.124;2023-04-25T11:25:06;0.00;;;0.00;;
44214;SDS011;29884;47.450;19.124;2023-04-25T11:27:32;0.00;;;0.00;;
44214;SDS011;29884;47.450;19.124;2023-04-25T11:30:09;0.22;;;0.17;;
44214;SDS011;29884;47.450;19.124;2023-04-25T11:32:39;0.20;;;0.00;;
44214;SDS011;29884;47.450;19.124;2023-04-25T11:35:06;0.00;;;0.00;;
44214;SDS011;29884;47.450;19.124;2023-04-25T11:37:32;0.08;;;0.00;;
44214;SDS011;29884;47.450;19.124;2023-04-25T11:39:59;0.10;;;0.10;;
44214;SDS011;29884;47.450;19.124;2023-04-25T11:42:25;1.60;;;0.00;;
44214;SDS011;29884;47.450;19.124;2023-04-25T11:44:51;0.10;;;0.00;;
44214;SDS011;29884;47.450;19.124;2023-04-25T11:47:17;0.20;;;0.00;;
44214;SDS011;29884;47.450;19.124;2023-04-25T11:49:43;0.15;;;0.03;;
44214;SDS011;29884;47.450;19.124;2023-04-25T11:52:09;0.63;;;0.10;;
44214;SDS011;29884;47.450;19.124;2023-04-25T11:54:35;1.05;;;0.10;;
44214;SDS011;29884;47.450;19.124;2023-04-25T11:57:02;0.10;;;0.03;;
44214;SDS011;29884;47.450;19.124;2023-04-25T11:59:29;0.10;;;0.00;;
44214;SDS011;29884;47.450;19.124;2023-04-25T12:01:55;0.00;;;0.00;;
44214;SDS011;29884;47.450;19.124;2023-04-25T12:04:23;0.25;;;0.10;;
44214;SDS011;29884;47.450;19.124;2023-04-25T12:06:51;1.02;;;0.05;;
44214;SDS011;29884;47.450;19.124;2023-04-25T12:09:19;0.03;;;0.03;;
44214;SDS011;29884;47.450;19.124;2023-04-25T12:11:53;0.20;;;0.10;;
44214;SDS011;29884;47.450;19.124;2023-04-25T12:14:24;0.00;;;0.00;;
44214;SDS011;29884;47.450;19.124;2023-04-25T12:16:58;0.57;;;0.00;;
44214;SDS011;29884;47.450;19.124;2023-04-25T12:19:25;1.63;;;0.10;;
44214;SDS011;29884;47.450;19.124;2023-04-25T12:21:51;0.10;;;0.10;;
44214;SDS011;29884;47.450;19.124;2023-04-25T12:24:18;0.20;;;0.20;;
44214;SDS011;29884;47.450;19.124;2023-04-25T12:27:00;0.77;;;0.10;;
44214;SDS011;29884;47.450;19.124;2023-04-25T12:29:30;0.20;;;0.10;;
44214;SDS011;29884;47.450;19.124;2023-04-25T12:31:57;0.30;;;0.10;;
44214;SDS011;29884;47.450;19.124;2023-04-25T12:34:23;0.10;;;0.10;;
44214;SDS011;29884;47.450;19.124;2023-04-25T12:36:51;0.25;;;0.20;;
44214;SDS011;29884;47.450;19.124;2023-04-25T12:41:44;0.30;;;0.10;;
44214;SDS011;29884;47.450;19.124;2023-04-25T12:44:10;0.65;;;0.10;;
44214;SDS011;29884;47.450;19.124;2023-04-25T12:46:37;0.10;;;0.10;;
44214;SDS011;29884;47.450;19.124;2023-04-25T12:49:03;0.10;;;0.10;;
44214;SDS011;29884;47.450;19.124;2023-04-25T12:51:29;1.40;;;0.10;;
44214;SDS011;29884;47.450;19.124;2023-04-25T12:53:57;0.32;;;0.20;;
44214;SDS011;29884;47.450;19.124;2023-04-25T12:56:27;0.20;;;0.10;;
44214;SDS011;29884;47.450;19.124;2023-04-25T12:58:53;0.20;;;0.10;;
44214;SDS011;29884;47.450;19.124;2023-04-25T13:01:19;0.15;;;0.10;;
44214;SDS011;29884;47.450;19.124;2023-04-25T13:03:45;1.40;;;0.20;;
44214;SDS011;29884;47.450;19.124;2023-04-25T13:06:11;0.10;;;0.10;;
44214;SDS011;29884;47.450;19.124;2023-04-25T13:08:38;1.30;;;0.10;;
44214;SDS011;29884;47.450;19.124;2023-04-25T13:11:04;0.10;;;0.10;;
44214;SDS011;29884;47.450;19.124;2023-04-25T13:13:30;0.30;;;0.10;;
44214;SDS011;29884;47.450;19.124;2023-04-25T13:15:57;0.10;;;0.10;;
44214;SDS011;29884;47.450;19.124;2023-04-25T13:18:23;0.20;;;0.10;;
44214;SDS011;29884;47.450;19.124;2023-04-25T13:20:55;0.45;;;0.10;;
44214;SDS011;29884;47.450;19.124;2023-04-25T13:23:21;1.13;;;0.20;;
44214;SDS011;29884;47.450;19.124;2023-04-25T13:25:47;0.38;;;0.20;;
44214;SDS011;29884;47.450;19.124;2023-04-25T13:28:13;0.25;;;0.10;;
44214;SDS011;29884;47.450;19.124;2023-04-25T13:30:39;0.38;;;0.10;;
44214;SDS011;29884;47.450;19.124;2023-04-25T13:33:05;0.20;;;0.13;;
44214;SDS011;29884;47.450;19.124;2023-04-25T13:35:32;0.15;;;0.15;;
44214;SDS011;29884;47.450;19.124;2023-04-25T13:37:58;1.13;;;0.20;;
44214;SDS011;29884;47.450;19.124;2023-04-25T13:40:25;0.68;;;0.17;;
44214;SDS011;29884;47.450;19.124;2023-04-25T13:42:51;1.35;;;0.20;;
44214;SDS011;29884;47.450;19.124;2023-04-25T13:45:18;0.20;;;0.20;;
44214;SDS011;29884;47.450;19.124;2023-04-25T13:47:44;0.77;;;0.17;;
44214;SDS011;29884;47.450;19.124;2023-04-25T13:50:10;2.28;;;0.20;;
44214;SDS011;29884;47.450;19.124;2023-04-25T13:52:36;0.10;;;0.10;;
44214;SDS011;29884;47.450;19.124;2023-04-25T13:55:02;0.38;;;0.17;;
44214;SDS011;29884;47.450;19.124;2023-04-25T13:57:30;0.30;;;0.30;;
44214;SDS011;29884;47.450;19.124;2023-04-25T13:59:56;1.58;;;0.20;;
44214;SDS011;29884;47.450;19.124;2023-04-25T14:02:21;0.50;;;0.20;;
44214;SDS011;29884;47.450;19.124;2023-04-25T14:04:47;0.85;;;0.25;;
44214;SDS011;29884;47.450;19.124;2023-04-25T14:07:13;0.38;;;0.10;;
44214;SDS011;29884;47.450;19.124;2023-04-25T14:09:43;0.20;;;0.20;;
44214;SDS011;29884;47.450;19.124;2023-04-25T14:12:09;0.45;;;0.20;;
44214;SDS011;29884;47.450;19.124;2023-04-25T14:14:34;2.72;;;0.28;;
44214;SDS011;29884;47.450;19.124;2023-04-25T14:17:00;1.17;;;0.17;;
44214;SDS011;29884;47.450;19.124;2023-04-25T14:19:26;0.52;;;0.20;;
44214;SDS011;29884;47.450;19.124;2023-04-25T14:21:53;0.20;;;0.20;;
44214;SDS011;29884;47.450;19.124;2023-04-25T14:24:19;0.60;;;0.20;;
44214;SDS011;29884;47.450;19.124;2023-04-25T14:26:45;1.45;;;0.20;;
44214;SDS011;29884;47.450;19.124;2023-04-25T14:29:11;0.45;;;0.20;;
44214;SDS011;29884;47.450;19.124;2023-04-25T14:31:37;0.10;;;0.10;;
44214;SDS011;29884;47.450;19.124;2023-04-25T14:34:04;0.52;;;0.22;;
44214;SDS011;29884;47.450;19.124;2023-04-25T14:36:30;0.70;;;0.35;;
44214;SDS011;29884;47.450;19.124;2023-04-25T14:38:57;0.65;;;0.20;;
44214;SDS011;29884;47.450;19.124;2023-04-25T14:41:24;0.60;;;0.10;;
44214;SDS011;29884;47.450;19.124;2023-04-25T14:43:50;0.65;;;0.20;;
44214;SDS011;29884;47.450;19.124;2023-04-25T14:46:16;0.28;;;0.20;;
44214;SDS011;29884;47.450;19.124;2023-04-25T14:48:42;0.15;;;0.15;;
44214;SDS011;29884;47.450;19.124;2023-04-25T14:51:08;0.60;;;0.20;;
44214;SDS011;29884;47.450;19.124;2023-04-25T14:53:33;0.60;;;0.30;;
44214;SDS011;29884;47.450;19.124;2023-04-25T14:55:59;0.40;;;0.20;;
44214;SDS011;29884;47.450;19.124;2023-04-25T14:58:25;0.30;;;0.20;;
44214;SDS011;29884;47.450;19.124;2023-04-25T15:00:51;0.32;;;0.20;;
44214;SDS011;29884;47.450;19.124;2023-04-25T15:03:17;0.30;;;0.20;;
44214;SDS011;29884;47.450;19.124;2023-04-25T15:05:43;0.52;;;0.30;;
44214;SDS011;29884;47.450;19.124;2023-04-25T15:08:09;0.20;;;0.20;;
44214;SDS011;29884;47.450;19.124;2023-04-25T15:10:37;0.22;;;0.20;;
44214;SDS011;29884;47.450;19.124;2023-04-25T15:13:03;0.40;;;0.20;;
44214;SDS011;29884;47.450;19.124;2023-04-25T15:15:29;1.35;;;0.20;;
44214;SDS011;29884;47.450;19.124;2023-04-25T15:17:55;0.73;;;0.20;;
44214;SDS011;29884;47.450;19.124;2023-04-25T15:20:23;0.30;;;0.20;;
44214;SDS011;29884;47.450;19.124;2023-04-25T15:22:49;0.43;;;0.20;;
44214;SDS011;29884;47.450;19.124;2023-04-25T15:25:15;1.55;;;0.20;;
44214;SDS011;29884;47.450;19.124;2023-04-25T15:27:44;0.73;;;0.20;;
44214;SDS011;29884;47.450;19.124;2023-04-25T15:30:13;0.43;;;0.25;;
44214;SDS011;29884;47.450;19.124;2023-04-25T15:32:43;0.22;;;0.20;;
44214;SDS011;29884;47.450;19.124;2023-04-25T15:35:09;0.47;;;0.20;;
44214;SDS011;29884;47.450;19.124;2023-04-25T15:37:35;0.20;;;0.10;;
44214;SDS011;29884;47.450;19.124;2023-04-25T15:40:09;0.32;;;0.22;;
44214;SDS011;29884;47.450;19.124;2023-04-25T15:42:39;0.40;;;0.28;;
44214;SDS011;29884;47.450;19.124;2023-04-25T15:45:08;0.60;;;0.28;;
44214;SDS011;29884;47.450;19.124;2023-04-25T15:47:35;0.22;;;0.20;;
44214;SDS011;29884;47.450;19.124;2023-04-25T15:50:03;0.20;;;0.15;;
44214;SDS011;29884;47.450;19.124;2023-04-25T15:52:30;0.80;;;0.30;;
44214;SDS011;29884;47.450;19.124;2023-04-25T15:54:56;0.45;;;0.30;;
44214;SDS011;29884;47.450;19.124;2023-04-25T15:57:23;0.75;;;0.30;;
44214;SDS011;29884;47.450;19.124;2023-04-25T15:59:48;0.55;;;0.30;;
44214;SDS011;29884;47.450;19.124;2023-04-25T16:02:15;0.60;;;0.30;;
44214;SDS011;29884;47.450;19.124;2023-04-25T16:04:41;0.80;;;0.30;;
44214;SDS011;29884;47.450;19.124;2023-04-25T16:07:07;1.65;;;0.50;;
44214;SDS011;29884;47.450;19.124;2023-04-25T16:09:36;3.35;;;0.60;;
44214;SDS011;29884;47.450;19.124;2023-04-25T16:12:03;1.67;;;0.50;;
44214;SDS011;29884;47.450;19.124;2023-04-25T16:19:41;1.63;;;0.70;;
44214;SDS011;29884;47.450;19.124;2023-04-25T16:24:44;4.93;;;0.60;;
44214;SDS011;29884;47.450;19.124;2023-04-25T16:29:45;1.23;;;0.60;;
44214;SDS011;29884;47.450;19.124;2023-04-25T16:32:13;1.48;;;0.55;;
44214;SDS011;29884;47.450;19.124;2023-04-25T16:34:39;1.00;;;0.52;;
44214;SDS011;29884;47.450;19.124;2023-04-25T16:37:04;2.10;;;0.68;;
44214;SDS011;29884;47.450;19.124;2023-04-25T16:39:30;0.80;;;0.50;;
44214;SDS011;29884;47.450;19.124;2023-04-25T16:44:32;1.10;;;0.80;;
44214;SDS011;29884;47.450;19.124;2023-04-25T16:49:33;2.05;;;0.70;;
44214;SDS011;29884;47.450;19.124;2023-04-25T16:52:03;0.60;;;0.45;;